sensor_id;sensor_type;location;lat;lon;timestamp;pressure;altitude;pressure_sealevel;temperature;humidity
19751;BME280;4663;49.120;9.730;2022-08-21T00:01:19;98150.78;;;11.99;96.88
19751;BME280;4663;49.120;9.730;2022-08-21T00:03:45;98148.69;;;12.16;95.54
19751;BME280;4663;49.120;9.730;2022-08-21T00:06:10;98150.22;;;12.03;95.85
19751;BME280;4663;49.120;9.730;2022-08-21T00:08:36;98147.59;;;12.10;95.48
19751;BME280;4663;49.120;9.730;2022-08-21T00:11:03;98151.25;;;12.02;96.26
19751;BME280;4663;49.120;9.730;2022-08-21T00:13:28;98144.56;;;11.98;95.92
19751;BME280;4663;49.120;9.730;2022-08-21T00:15:54;98161.50;;;12.07;95.93
19751;BME280;4663;49.120;9.730;2022-08-21T00:18:19;98150.53;;;11.93;96.71
19751;BME280;4663;49.120;9.730;2022-08-21T00:20:46;98154.28;;;11.92;97.09
19751;BME280;4663;49.120;9.730;2022-08-21T00:23:12;98148.66;;;11.94;96.65
19751;BME280;4663;49.120;9.730;2022-08-21T00:25:38;98149.63;;;11.86;96.73
19751;BME280;4663;49.120;9.730;2022-08-21T00:28:04;98144.22;;;11.86;96.13
19751;BME280;4663;49.120;9.730;2022-08-21T00:30:30;98140.59;;;11.79;95.49
19751;BME280;4663;49.120;9.730;2022-08-21T00:32:56;98144.59;;;11.83;94.99
19751;BME280;4663;49.120;9.730;2022-08-21T00:35:28;98145.06;;;11.87;94.75
19751;BME280;4663;49.120;9.730;2022-08-21T00:37:54;98142.34;;;11.87;95.02
19751;BME280;4663;49.120;9.730;2022-08-21T00:40:24;98136.28;;;11.85;95.10
19751;BME280;4663;49.120;9.730;2022-08-21T00:42:50;98137.50;;;11.82;95.17
19751;BME280;4663;49.120;9.730;2022-08-21T00:45:16;98144.06;;;11.73;94.78
19751;BME280;4663;49.120;9.730;2022-08-21T00:47:41;98138.50;;;11.59;95.05
19751;BME280;4663;49.120;9.730;2022-08-21T00:50:08;98139.69;;;11.72;95.00
19751;BME280;4663;49.120;9.730;2022-08-21T00:52:35;98134.00;;;11.66;95.20
19751;BME280;4663;49.120;9.730;2022-08-21T00:55:04;98135.59;;;11.09;98.49
19751;BME280;4663;49.120;9.730;2022-08-21T00:57:36;98140.34;;;11.22;98.53
19751;BME280;4663;49.120;9.730;2022-08-21T01:00:06;98133.53;;;11.26;97.67
19751;BME280;4663;49.120;9.730;2022-08-21T01:02:32;98128.97;;;11.11;98.66
19751;BME280;4663;49.120;9.730;2022-08-21T01:04:58;98129.06;;;11.18;98.66
19751;BME280;4663;49.120;9.730;2022-08-21T01:07:24;98124.59;;;11.10;98.18
19751;BME280;4663;49.120;9.730;2022-08-21T01:09:50;98121.19;;;11.08;98.89
19751;BME280;4663;49.120;9.730;2022-08-21T01:12:16;98128.75;;;10.98;99.31
19751;BME280;4663;49.120;9.730;2022-08-21T01:14:43;98127.53;;;11.46;97.55
19751;BME280;4663;49.120;9.730;2022-08-21T01:17:11;98124.84;;;11.31;96.96
19751;BME280;4663;49.120;9.730;2022-08-21T01:19:38;98124.94;;;11.37;97.09
19751;BME280;4663;49.120;9.730;2022-08-21T01:22:03;98131.00;;;11.24;97.56
19751;BME280;4663;49.120;9.730;2022-08-21T01:24:29;98128.28;;;10.94;98.54
19751;BME280;4663;49.120;9.730;2022-08-21T01:26:57;98127.19;;;11.03;98.34
19751;BME280;4663;49.120;9.730;2022-08-21T01:29:57;98128.47;;;11.08;98.42
19751;BME280;4663;49.120;9.730;2022-08-21T01:32:22;98117.69;;;11.08;97.84
19751;BME280;4663;49.120;9.730;2022-08-21T01:34:49;98122.06;;;10.94;98.95
19751;BME280;4663;49.120;9.730;2022-08-21T01:37:15;98124.38;;;10.97;98.86
19751;BME280;4663;49.120;9.730;2022-08-21T01:39:42;98127.81;;;10.90;98.54
19751;BME280;4663;49.120;9.730;2022-08-21T01:42:08;98131.47;;;10.98;98.55
19751;BME280;4663;49.120;9.730;2022-08-21T01:44:34;98128.47;;;10.93;98.87
19751;BME280;4663;49.120;9.730;2022-08-21T01:47:03;98115.06;;;10.99;98.06
19751;BME280;4663;49.120;9.730;2022-08-21T01:49:29;98120.94;;;11.03;96.94
19751;BME280;4663;49.120;9.730;2022-08-21T01:51:55;98121.13;;;11.01;97.38
19751;BME280;4663;49.120;9.730;2022-08-21T01:54:20;98117.38;;;10.87;97.45
19751;BME280;4663;49.120;9.730;2022-08-21T01:56:48;98116.84;;;10.92;97.84
19751;BME280;4663;49.120;9.730;2022-08-21T01:59:15;98119.19;;;10.95;97.59
19751;BME280;4663;49.120;9.730;2022-08-21T02:01:41;98106.13;;;10.99;97.48
19751;BME280;4663;49.120;9.730;2022-08-21T02:04:09;98123.06;;;10.93;97.37
19751;BME280;4663;49.120;9.730;2022-08-21T02:06:35;98117.38;;;10.87;97.98
19751;BME280;4663;49.120;9.730;2022-08-21T02:09:03;98106.59;;;10.87;97.05
19751;BME280;4663;49.120;9.730;2022-08-21T02:11:30;98111.63;;;10.90;97.36
19751;BME280;4663;49.120;9.730;2022-08-21T02:13:56;98110.50;;;10.85;97.60
19751;BME280;4663;49.120;9.730;2022-08-21T02:16:22;98113.94;;;10.78;97.26
19751;BME280;4663;49.120;9.730;2022-08-21T02:18:47;98112.00;;;10.72;97.49
19751;BME280;4663;49.120;9.730;2022-08-21T02:21:12;98099.66;;;10.39;98.80
19751;BME280;4663;49.120;9.730;2022-08-21T02:23:38;98103.28;;;10.47;98.85
19751;BME280;4663;49.120;9.730;2022-08-21T02:26:05;98103.88;;;10.72;98.80
19751;BME280;4663;49.120;9.730;2022-08-21T02:28:32;98107.13;;;10.68;98.26
19751;BME280;4663;49.120;9.730;2022-08-21T02:30:57;98105.81;;;10.63;97.51
19751;BME280;4663;49.120;9.730;2022-08-21T02:33:23;98103.47;;;10.45;98.39
19751;BME280;4663;49.120;9.730;2022-08-21T02:35:49;98098.00;;;10.54;97.29
19751;BME280;4663;49.120;9.730;2022-08-21T02:38:21;98100.13;;;10.43;97.33
19751;BME280;4663;49.120;9.730;2022-08-21T02:40:48;98102.59;;;10.30;98.31
19751;BME280;4663;49.120;9.730;2022-08-21T02:43:15;98104.59;;;10.36;98.20
19751;BME280;4663;49.120;9.730;2022-08-21T02:45:41;98103.00;;;10.42;97.70
19751;BME280;4663;49.120;9.730;2022-08-21T02:48:11;98101.03;;;10.35;98.19
19751;BME280;4663;49.120;9.730;2022-08-21T02:50:52;98106.34;;;10.29;98.80
19751;BME280;4663;49.120;9.730;2022-08-21T02:53:17;98108.28;;;10.35;98.45
19751;BME280;4663;49.120;9.730;2022-08-21T02:55:45;98103.09;;;10.33;97.74
19751;BME280;4663;49.120;9.730;2022-08-21T02:58:11;98104.44;;;10.29;97.50
19751;BME280;4663;49.120;9.730;2022-08-21T03:00:38;98104.16;;;10.24;97.65
19751;BME280;4663;49.120;9.730;2022-08-21T03:03:04;98110.94;;;10.20;97.64
19751;BME280;4663;49.120;9.730;2022-08-21T03:05:33;98100.44;;;10.25;97.89
19751;BME280;4663;49.120;9.730;2022-08-21T03:08:01;98104.84;;;10.26;97.34
19751;BME280;4663;49.120;9.730;2022-08-21T03:10:28;98106.31;;;10.13;97.35
19751;BME280;4663;49.120;9.730;2022-08-21T03:12:56;98103.38;;;10.15;97.74
19751;BME280;4663;49.120;9.730;2022-08-21T03:15:23;98102.22;;;10.18;97.97
19751;BME280;4663;49.120;9.730;2022-08-21T03:17:51;98103.88;;;10.19;97.68
19751;BME280;4663;49.120;9.730;2022-08-21T03:20:20;98100.16;;;10.20;97.89
19751;BME280;4663;49.120;9.730;2022-08-21T03:22:47;98105.56;;;10.20;98.98
19751;BME280;4663;49.120;9.730;2022-08-21T03:25:12;98096.63;;;10.19;98.44
19751;BME280;4663;49.120;9.730;2022-08-21T03:27:37;98104.97;;;10.09;99.21
19751;BME280;4663;49.120;9.730;2022-08-21T03:30:06;98106.75;;;10.17;98.65
19751;BME280;4663;49.120;9.730;2022-08-21T03:32:33;98112.03;;;10.10;98.54
19751;BME280;4663;49.120;9.730;2022-08-21T03:34:58;98114.69;;;10.19;98.98
19751;BME280;4663;49.120;9.730;2022-08-21T03:37:26;98116.53;;;10.18;98.53
19751;BME280;4663;49.120;9.730;2022-08-21T03:39:52;98110.25;;;10.26;98.47
19751;BME280;4663;49.120;9.730;2022-08-21T03:42:17;98120.88;;;10.19;98.14
19751;BME280;4663;49.120;9.730;2022-08-21T03:44:43;98108.78;;;10.15;97.93
19751;BME280;4663;49.120;9.730;2022-08-21T03:47:08;98112.63;;;9.97;97.29
19751;BME280;4663;49.120;9.730;2022-08-21T03:49:34;98122.84;;;9.79;98.29
19751;BME280;4663;49.120;9.730;2022-08-21T03:52:00;98124.66;;;9.86;98.59
19751;BME280;4663;49.120;9.730;2022-08-21T03:54:26;98117.34;;;9.95;98.45
19751;BME280;4663;49.120;9.730;2022-08-21T03:56:51;98125.81;;;9.92;98.67
19751;BME280;4663;49.120;9.730;2022-08-21T03:59:17;98120.25;;;9.94;98.21
19751;BME280;4663;49.120;9.730;2022-08-21T04:01:58;98130.13;;;9.78;99.09
19751;BME280;4663;49.120;9.730;2022-08-21T04:04:25;98135.63;;;9.53;100.00
19751;BME280;4663;49.120;9.730;2022-08-21T04:06:50;98134.09;;;9.59;99.36
19751;BME280;4663;49.120;9.730;2022-08-21T04:09:17;98124.78;;;9.70;98.32
19751;BME280;4663;49.120;9.730;2022-08-21T04:11:43;98128.34;;;9.62;97.83
19751;BME280;4663;49.120;9.730;2022-08-21T04:14:08;98135.63;;;9.53;97.84
19751;BME280;4663;49.120;9.730;2022-08-21T04:16:35;98130.56;;;9.58;97.76
19751;BME280;4663;49.120;9.730;2022-08-21T04:19:00;98134.09;;;9.59;97.05
19751;BME280;4663;49.120;9.730;2022-08-21T04:21:26;98137.16;;;9.56;96.70
19751;BME280;4663;49.120;9.730;2022-08-21T04:23:54;98145.63;;;9.44;97.22
19751;BME280;4663;49.120;9.730;2022-08-21T04:26:21;98148.00;;;9.39;97.76
19751;BME280;4663;49.120;9.730;2022-08-21T04:28:46;98143.44;;;9.40;98.51
19751;BME280;4663;49.120;9.730;2022-08-21T04:31:12;98150.47;;;9.49;98.50
19751;BME280;4663;49.120;9.730;2022-08-21T04:33:37;98150.28;;;9.51;98.32
19751;BME280;4663;49.120;9.730;2022-08-21T04:36:03;98151.97;;;9.52;98.24
19751;BME280;4663;49.120;9.730;2022-08-21T04:38:29;98159.41;;;9.49;98.51
19751;BME280;4663;49.120;9.730;2022-08-21T04:40:56;98160.81;;;9.37;99.33
19751;BME280;4663;49.120;9.730;2022-08-21T04:43:21;98164.13;;;9.47;99.24
19751;BME280;4663;49.120;9.730;2022-08-21T04:45:49;98162.53;;;9.61;98.26
19751;BME280;4663;49.120;9.730;2022-08-21T04:48:17;98171.97;;;9.66;97.70
19751;BME280;4663;49.120;9.730;2022-08-21T04:53:35;98172.56;;;9.76;97.52
19751;BME280;4663;49.120;9.730;2022-08-21T04:56:05;98168.56;;;9.72;97.95
19751;BME280;4663;49.120;9.730;2022-08-21T04:58:34;98170.00;;;9.83;97.38
19751;BME280;4663;49.120;9.730;2022-08-21T05:01:00;98169.41;;;9.96;97.20
19751;BME280;4663;49.120;9.730;2022-08-21T05:03:27;98181.16;;;10.11;96.89
19751;BME280;4663;49.120;9.730;2022-08-21T05:05:53;98177.28;;;10.29;96.34
19751;BME280;4663;49.120;9.730;2022-08-21T05:08:21;98174.50;;;10.46;96.07
19751;BME280;4663;49.120;9.730;2022-08-21T05:10:48;98187.16;;;10.60;95.77
19751;BME280;4663;49.120;9.730;2022-08-21T05:13:14;98176.50;;;10.67;94.93
19751;BME280;4663;49.120;9.730;2022-08-21T05:15:40;98178.78;;;10.55;94.64
19751;BME280;4663;49.120;9.730;2022-08-21T05:18:06;98180.03;;;10.68;95.04
19751;BME280;4663;49.120;9.730;2022-08-21T05:20:33;98178.78;;;10.55;96.01
19751;BME280;4663;49.120;9.730;2022-08-21T05:23:06;98180.81;;;10.53;96.53
19751;BME280;4663;49.120;9.730;2022-08-21T05:25:33;98174.81;;;10.66;96.76
19751;BME280;4663;49.120;9.730;2022-08-21T05:27:58;98176.16;;;10.85;95.76
19751;BME280;4663;49.120;9.730;2022-08-21T05:30:24;98185.19;;;10.93;95.02
19751;BME280;4663;49.120;9.730;2022-08-21T05:32:49;98178.00;;;10.85;94.74
19751;BME280;4663;49.120;9.730;2022-08-21T05:35:21;98189.19;;;10.82;95.01
19751;BME280;4663;49.120;9.730;2022-08-21T05:37:46;98189.06;;;11.13;95.02
19751;BME280;4663;49.120;9.730;2022-08-21T05:40:12;98184.22;;;11.09;94.45
19751;BME280;4663;49.120;9.730;2022-08-21T05:42:37;98185.41;;;11.06;94.98
19751;BME280;4663;49.120;9.730;2022-08-21T05:45:03;98191.09;;;10.73;96.94
19751;BME280;4663;49.120;9.730;2022-08-21T05:47:28;98192.28;;;10.94;96.30
19751;BME280;4663;49.120;9.730;2022-08-21T05:49:54;98184.34;;;10.77;94.85
19751;BME280;4663;49.120;9.730;2022-08-21T05:52:20;98201.09;;;11.11;95.45
19751;BME280;4663;49.120;9.730;2022-08-21T05:54:46;98197.59;;;11.02;94.53
19751;BME280;4663;49.120;9.730;2022-08-21T05:57:11;98199.03;;;11.43;94.16
19751;BME280;4663;49.120;9.730;2022-08-21T05:59:37;98196.09;;;10.99;94.11
19751;BME280;4663;49.120;9.730;2022-08-21T06:02:03;98195.97;;;10.93;95.76
19751;BME280;4663;49.120;9.730;2022-08-21T06:04:28;98189.13;;;10.28;98.41
19751;BME280;4663;49.120;9.730;2022-08-21T06:06:54;98199.50;;;10.78;96.57
19751;BME280;4663;49.120;9.730;2022-08-21T06:09:19;98192.13;;;11.25;95.21
19751;BME280;4663;49.120;9.730;2022-08-21T06:11:45;98190.66;;;11.23;93.63
19751;BME280;4663;49.120;9.730;2022-08-21T06:14:13;98189.69;;;11.98;92.08
19751;BME280;4663;49.120;9.730;2022-08-21T06:16:39;98186.56;;;11.79;93.06
19751;BME280;4663;49.120;9.730;2022-08-21T06:19:05;98192.19;;;12.87;91.22
19751;BME280;4663;49.120;9.730;2022-08-21T06:21:30;98186.25;;;12.48;89.32
19751;BME280;4663;49.120;9.730;2022-08-21T06:23:56;98193.84;;;12.59;89.13
19751;BME280;4663;49.120;9.730;2022-08-21T06:26:22;98199.25;;;12.59;88.88
19751;BME280;4663;49.120;9.730;2022-08-21T06:28:48;98197.00;;;12.63;87.13
19751;BME280;4663;49.120;9.730;2022-08-21T06:31:17;98203.38;;;12.55;88.91
19751;BME280;4663;49.120;9.730;2022-08-21T06:33:43;98205.63;;;12.73;89.36
19751;BME280;4663;49.120;9.730;2022-08-21T06:36:09;98204.59;;;13.31;88.77
19751;BME280;4663;49.120;9.730;2022-08-21T06:38:35;98201.88;;;13.73;87.43
19751;BME280;4663;49.120;9.730;2022-08-21T06:41:01;98195.03;;;13.84;85.68
19751;BME280;4663;49.120;9.730;2022-08-21T06:43:27;98192.84;;;14.08;85.64
19751;BME280;4663;49.120;9.730;2022-08-21T06:45:52;98196.59;;;14.01;85.60
19751;BME280;4663;49.120;9.730;2022-08-21T06:48:18;98194.59;;;14.57;82.99
19751;BME280;4663;49.120;9.730;2022-08-21T06:50:43;98195.84;;;15.01;83.42
19751;BME280;4663;49.120;9.730;2022-08-21T06:53:11;98190.81;;;15.12;81.75
19751;BME280;4663;49.120;9.730;2022-08-21T06:55:37;98200.66;;;14.99;81.48
19751;BME280;4663;49.120;9.730;2022-08-21T06:58:03;98190.19;;;15.10;80.85
19751;BME280;4663;49.120;9.730;2022-08-21T07:00:30;98197.72;;;15.08;80.41
19751;BME280;4663;49.120;9.730;2022-08-21T07:02:56;98199.19;;;14.63;81.65
19751;BME280;4663;49.120;9.730;2022-08-21T07:05:25;98203.16;;;15.08;81.89
19751;BME280;4663;49.120;9.730;2022-08-21T07:07:51;98192.09;;;15.82;78.73
19751;BME280;4663;49.120;9.730;2022-08-21T07:10:16;98192.31;;;16.20;77.25
19751;BME280;4663;49.120;9.730;2022-08-21T07:12:42;98191.81;;;16.36;77.18
19751;BME280;4663;49.120;9.730;2022-08-21T07:15:08;98189.56;;;16.26;76.75
19751;BME280;4663;49.120;9.730;2022-08-21T07:17:33;98199.34;;;16.34;77.85
19751;BME280;4663;49.120;9.730;2022-08-21T07:19:59;98205.13;;;16.51;77.83
19751;BME280;4663;49.120;9.730;2022-08-21T07:22:24;98190.47;;;18.40;71.78
19751;BME280;4663;49.120;9.730;2022-08-21T07:24:52;98177.66;;;18.40;68.16
19751;BME280;4663;49.120;9.730;2022-08-21T07:27:18;98185.88;;;19.72;68.96
19751;BME280;4663;49.120;9.730;2022-08-21T07:29:43;98179.16;;;19.80;66.84
19751;BME280;4663;49.120;9.730;2022-08-21T07:32:08;98182.38;;;19.23;66.00
19751;BME280;4663;49.120;9.730;2022-08-21T07:34:34;98180.00;;;19.39;67.20
19751;BME280;4663;49.120;9.730;2022-08-21T07:36:59;98179.34;;;19.61;66.65
19751;BME280;4663;49.120;9.730;2022-08-21T07:39:25;98172.91;;;20.72;63.38
19751;BME280;4663;49.120;9.730;2022-08-21T07:41:50;98173.41;;;20.86;63.87
19751;BME280;4663;49.120;9.730;2022-08-21T07:44:16;98159.56;;;20.29;62.07
19751;BME280;4663;49.120;9.730;2022-08-21T07:46:41;98162.72;;;21.68;62.00
19751;BME280;4663;49.120;9.730;2022-08-21T07:49:07;98154.31;;;22.30;60.21
19751;BME280;4663;49.120;9.730;2022-08-21T07:51:32;98164.44;;;20.73;62.25
19751;BME280;4663;49.120;9.730;2022-08-21T07:53:59;98144.88;;;21.26;59.79
19751;BME280;4663;49.120;9.730;2022-08-21T07:56:27;98158.25;;;20.49;63.56
19751;BME280;4663;49.120;9.730;2022-08-21T07:58:52;98151.53;;;22.25;61.51
19751;BME280;4663;49.120;9.730;2022-08-21T08:01:19;98158.91;;;20.90;62.38
19751;BME280;4663;49.120;9.730;2022-08-21T08:03:46;98147.09;;;21.07;61.42
19751;BME280;4663;49.120;9.730;2022-08-21T08:06:12;98146.13;;;20.62;61.74
19751;BME280;4663;49.120;9.730;2022-08-21T08:08:38;98147.22;;;20.78;62.86
19751;BME280;4663;49.120;9.730;2022-08-21T08:11:04;98144.81;;;20.99;64.39
19751;BME280;4663;49.120;9.730;2022-08-21T08:13:30;98136.94;;;22.90;60.66
19751;BME280;4663;49.120;9.730;2022-08-21T08:15:55;98133.84;;;23.94;59.13
19751;BME280;4663;49.120;9.730;2022-08-21T08:18:21;98130.94;;;22.28;60.43
19751;BME280;4663;49.120;9.730;2022-08-21T08:20:46;98127.53;;;22.15;59.97
19751;BME280;4663;49.120;9.730;2022-08-21T08:23:15;98126.63;;;22.70;60.51
19751;BME280;4663;49.120;9.730;2022-08-21T08:25:40;98124.94;;;22.03;60.51
19751;BME280;4663;49.120;9.730;2022-08-21T08:28:07;98118.91;;;22.34;60.63
19751;BME280;4663;49.120;9.730;2022-08-21T08:30:33;98119.72;;;23.10;59.66
19751;BME280;4663;49.120;9.730;2022-08-21T08:32:59;98106.31;;;22.76;59.48
19751;BME280;4663;49.120;9.730;2022-08-21T08:35:25;98110.38;;;23.12;59.80
19751;BME280;4663;49.120;9.730;2022-08-21T08:37:51;98098.84;;;22.33;58.76
19751;BME280;4663;49.120;9.730;2022-08-21T08:40:44;98128.41;;;23.40;61.68
19751;BME280;4663;49.120;9.730;2022-08-21T08:43:12;98105.16;;;23.84;58.63
19751;BME280;4663;49.120;9.730;2022-08-21T08:45:40;98101.88;;;22.70;59.75
19751;BME280;4663;49.120;9.730;2022-08-21T08:48:10;98102.97;;;22.69;60.62
19751;BME280;4663;49.120;9.730;2022-08-21T08:53:20;98098.31;;;24.81;58.46
19751;BME280;4663;49.120;9.730;2022-08-21T08:55:48;98101.00;;;25.07;57.70
19751;BME280;4663;49.120;9.730;2022-08-21T08:58:22;98097.72;;;23.80;58.40
19751;BME280;4663;49.120;9.730;2022-08-21T09:00:51;98084.25;;;23.99;57.44
19751;BME280;4663;49.120;9.730;2022-08-21T09:03:17;98099.41;;;24.02;58.49
19751;BME280;4663;49.120;9.730;2022-08-21T09:05:53;98108.44;;;25.17;56.43
19751;BME280;4663;49.120;9.730;2022-08-21T09:17:39;98084.41;;;25.17;56.47
19751;BME280;4663;49.120;9.730;2022-08-21T09:20:35;98080.03;;;23.70;57.83
19751;BME280;4663;49.120;9.730;2022-08-21T09:23:25;98085.47;;;23.39;58.65
19751;BME280;4663;49.120;9.730;2022-08-21T09:26:11;98076.25;;;23.97;57.69
19751;BME280;4663;49.120;9.730;2022-08-21T09:28:38;98063.03;;;24.31;56.12
19751;BME280;4663;49.120;9.730;2022-08-21T09:31:08;98069.31;;;25.60;55.24
19751;BME280;4663;49.120;9.730;2022-08-21T09:33:34;98061.72;;;26.21;53.79
19751;BME280;4663;49.120;9.730;2022-08-21T09:36:00;98052.59;;;26.50;53.04
19751;BME280;4663;49.120;9.730;2022-08-21T09:38:33;98067.47;;;26.89;54.18
19751;BME280;4663;49.120;9.730;2022-08-21T09:41:05;98064.19;;;27.12;54.34
19751;BME280;4663;49.120;9.730;2022-08-21T09:43:32;98059.41;;;25.99;54.09
19751;BME280;4663;49.120;9.730;2022-08-21T09:46:30;98066.63;;;24.16;56.63
19751;BME280;4663;49.120;9.730;2022-08-21T09:49:02;98069.81;;;25.11;56.21
19751;BME280;4663;49.120;9.730;2022-08-21T09:51:35;98036.84;;;24.07;53.28
19751;BME280;4663;49.120;9.730;2022-08-21T09:56:34;98048.13;;;24.32;53.09
19751;BME280;4663;49.120;9.730;2022-08-21T09:59:31;98021.09;;;24.65;50.48
19751;BME280;4663;49.120;9.730;2022-08-21T10:02:22;98031.91;;;23.99;50.99
19751;BME280;4663;49.120;9.730;2022-08-21T10:04:53;98023.13;;;23.07;51.33
19751;BME280;4663;49.120;9.730;2022-08-21T10:07:21;98020.72;;;21.64;52.05
19751;BME280;4663;49.120;9.730;2022-08-21T10:12:33;98019.66;;;23.38;50.89
19751;BME280;4663;49.120;9.730;2022-08-21T10:15:20;98022.09;;;23.29;51.32
19751;BME280;4663;49.120;9.730;2022-08-21T10:20:45;98023.06;;;22.48;50.80
19751;BME280;4663;49.120;9.730;2022-08-21T10:26:12;98005.38;;;23.61;49.57
19751;BME280;4663;49.120;9.730;2022-08-21T10:37:14;98015.22;;;24.82;48.47
19751;BME280;4663;49.120;9.730;2022-08-21T10:51:20;98008.88;;;22.62;50.21
19751;BME280;4663;49.120;9.730;2022-08-21T10:56:29;97995.50;;;23.81;48.58
19751;BME280;4663;49.120;9.730;2022-08-21T11:04:16;97993.56;;;23.77;48.63
19751;BME280;4663;49.120;9.730;2022-08-21T11:06:51;97990.28;;;24.11;48.27
19751;BME280;4663;49.120;9.730;2022-08-21T11:09:20;97996.88;;;23.79;49.40
19751;BME280;4663;49.120;9.730;2022-08-21T11:12:07;97989.13;;;22.75;50.17
19751;BME280;4663;49.120;9.730;2022-08-21T11:14:54;97992.97;;;23.38;49.85
19751;BME280;4663;49.120;9.730;2022-08-21T11:20:46;97980.63;;;24.13;48.48
19751;BME280;4663;49.120;9.730;2022-08-21T11:23:25;97977.56;;;24.46;47.82
19751;BME280;4663;49.120;9.730;2022-08-21T11:26:05;97984.78;;;22.84;50.78
19751;BME280;4663;49.120;9.730;2022-08-21T11:28:37;97969.94;;;22.86;50.61
19751;BME280;4663;49.120;9.730;2022-08-21T11:31:17;97975.63;;;22.68;50.73
19751;BME280;4663;49.120;9.730;2022-08-21T11:33:57;97964.88;;;23.46;49.45
19751;BME280;4663;49.120;9.730;2022-08-21T11:39:22;97967.66;;;23.62;49.84
19751;BME280;4663;49.120;9.730;2022-08-21T11:44:52;97956.06;;;23.39;49.27
19751;BME280;4663;49.120;9.730;2022-08-21T11:47:41;97951.28;;;22.50;50.73
19751;BME280;4663;49.120;9.730;2022-08-21T11:53:17;97958.84;;;23.65;49.34
19751;BME280;4663;49.120;9.730;2022-08-21T11:56:06;97951.66;;;23.43;49.39
19751;BME280;4663;49.120;9.730;2022-08-21T11:58:39;97953.59;;;23.38;49.59
19751;BME280;4663;49.120;9.730;2022-08-21T12:01:09;97952.72;;;23.16;49.54
19751;BME280;4663;49.120;9.730;2022-08-21T12:03:42;97951.38;;;23.71;49.12
19751;BME280;4663;49.120;9.730;2022-08-21T12:06:14;97943.84;;;24.60;47.43
19751;BME280;4663;49.120;9.730;2022-08-21T12:08:45;97940.94;;;24.09;47.81
19751;BME280;4663;49.120;9.730;2022-08-21T12:13:57;97929.63;;;23.38;48.34
19751;BME280;4663;49.120;9.730;2022-08-21T12:16:35;97942.03;;;23.41;49.16
19751;BME280;4663;49.120;9.730;2022-08-21T12:21:29;97931.66;;;22.79;48.30
19751;BME280;4663;49.120;9.730;2022-08-21T12:29:29;97931.50;;;23.12;47.77
19751;BME280;4663;49.120;9.730;2022-08-21T12:32:30;97937.88;;;23.33;47.76
19751;BME280;4663;49.120;9.730;2022-08-21T12:34:52;97933.78;;;23.35;47.21
19751;BME280;4663;49.120;9.730;2022-08-21T12:37:42;97921.84;;;23.04;47.43
19751;BME280;4663;49.120;9.730;2022-08-21T12:40:20;97913.00;;;22.86;47.36
19751;BME280;4663;49.120;9.730;2022-08-21T12:42:50;97932.78;;;22.88;49.07
19751;BME280;4663;49.120;9.730;2022-08-21T12:45:23;97914.59;;;22.71;47.70
19751;BME280;4663;49.120;9.730;2022-08-21T12:48:10;97926.91;;;22.58;48.60
19751;BME280;4663;49.120;9.730;2022-08-21T12:50:50;97915.69;;;22.22;48.21
19751;BME280;4663;49.120;9.730;2022-08-21T12:55:54;97908.31;;;22.23;48.49
19751;BME280;4663;49.120;9.730;2022-08-21T12:58:27;97897.31;;;22.87;47.92
19751;BME280;4663;49.120;9.730;2022-08-21T13:01:04;97900.69;;;23.15;48.30
19751;BME280;4663;49.120;9.730;2022-08-21T13:03:30;97889.84;;;22.18;47.42
19751;BME280;4663;49.120;9.730;2022-08-21T13:05:58;97906.16;;;23.04;47.76
19751;BME280;4663;49.120;9.730;2022-08-21T13:08:24;97893.28;;;23.72;46.36
19751;BME280;4663;49.120;9.730;2022-08-21T13:10:59;97880.63;;;23.51;45.73
19751;BME280;4663;49.120;9.730;2022-08-21T13:13:26;97915.88;;;23.95;47.78
19751;BME280;4663;49.120;9.730;2022-08-21T13:16:02;97891.38;;;23.68;46.36
19751;BME280;4663;49.120;9.730;2022-08-21T13:18:31;97893.03;;;23.84;46.36
19751;BME280;4663;49.120;9.730;2022-08-21T13:21:07;97862.19;;;23.88;44.30
19751;BME280;4663;49.120;9.730;2022-08-21T13:23:35;97885.88;;;23.89;45.03
19751;BME280;4663;49.120;9.730;2022-08-21T13:26:00;97894.38;;;24.13;45.86
19751;BME280;4663;49.120;9.730;2022-08-21T13:28:35;97892.41;;;24.19;45.82
19751;BME280;4663;49.120;9.730;2022-08-21T13:31:07;97880.63;;;23.25;45.98
19751;BME280;4663;49.120;9.730;2022-08-21T13:33:34;97874.84;;;23.37;45.14
19751;BME280;4663;49.120;9.730;2022-08-21T13:38:28;97855.72;;;22.62;45.18
19751;BME280;4663;49.120;9.730;2022-08-21T13:40:58;97890.81;;;23.60;45.98
19751;BME280;4663;49.120;9.730;2022-08-21T13:43:32;97884.41;;;24.33;44.89
19751;BME280;4663;49.120;9.730;2022-08-21T13:45:59;97886.38;;;24.01;45.87
19751;BME280;4663;49.120;9.730;2022-08-21T13:48:27;97848.69;;;23.55;43.76
19751;BME280;4663;49.120;9.730;2022-08-21T13:50:54;97856.66;;;23.46;43.83
19751;BME280;4663;49.120;9.730;2022-08-21T13:55:54;97833.75;;;22.93;42.46
19751;BME280;4663;49.120;9.730;2022-08-21T13:58:33;97850.63;;;23.39;43.66
19751;BME280;4663;49.120;9.730;2022-08-21T14:01:18;97832.72;;;23.20;42.14
19751;BME280;4663;49.120;9.730;2022-08-21T14:03:47;97847.00;;;23.07;42.53
19751;BME280;4663;49.120;9.730;2022-08-21T14:06:25;97847.00;;;23.02;43.17
19751;BME280;4663;49.120;9.730;2022-08-21T14:08:55;97842.09;;;23.19;42.97
19751;BME280;4663;49.120;9.730;2022-08-21T14:11:21;97880.63;;;23.19;46.00
19751;BME280;4663;49.120;9.730;2022-08-21T14:14:20;97826.09;;;23.06;42.00
19751;BME280;4663;49.120;9.730;2022-08-21T14:17:03;97847.31;;;23.47;42.71
19751;BME280;4663;49.120;9.730;2022-08-21T14:19:41;97815.00;;;22.54;41.58
19751;BME280;4663;49.120;9.730;2022-08-21T14:22:36;97813.34;;;22.53;42.14
19751;BME280;4663;49.120;9.730;2022-08-21T14:27:51;97863.44;;;22.81;44.95
19751;BME280;4663;49.120;9.730;2022-08-21T14:30:29;97861.22;;;22.73;45.73
19751;BME280;4663;49.120;9.730;2022-08-21T14:32:56;97835.91;;;22.55;43.67
19751;BME280;4663;49.120;9.730;2022-08-21T14:35:22;97813.78;;;22.29;42.56
19751;BME280;4663;49.120;9.730;2022-08-21T14:37:48;97824.81;;;22.50;43.00
19751;BME280;4663;49.120;9.730;2022-08-21T14:40:18;97848.59;;;22.71;45.17
19751;BME280;4663;49.120;9.730;2022-08-21T14:42:45;97867.69;;;22.35;47.71
19751;BME280;4663;49.120;9.730;2022-08-21T14:47:45;97815.47;;;22.40;44.11
19751;BME280;4663;49.120;9.730;2022-08-21T14:50:12;97851.47;;;22.39;46.73
19751;BME280;4663;49.120;9.730;2022-08-21T14:52:38;97815.31;;;21.99;44.57